sensor_id;sensor_type;location;lat;lon;timestamp;P1;durP1;ratioP1;P2;durP2;ratioP2
11935;SDS011;6027;48.576;9.180;2023-05-17T00:00:26;3.58;;;1.30;;
11935;SDS011;6027;48.576;9.180;2023-05-17T00:02:52;3.08;;;1.35;;
11935;SDS011;6027;48.576;9.180;2023-05-17T00:05:17;4.00;;;1.30;;
11935;SDS011;6027;48.576;9.180;2023-05-17T00:07:43;3.17;;;1.23;;
11935;SDS011;6027;48.576;9.180;2023-05-17T00:10:08;1.80;;;1.30;;
11935;SDS011;6027;48.576;9.180;2023-05-17T00:12:33;3.33;;;1.35;;
11935;SDS011;6027;48.576;9.180;2023-05-17T00:14:59;2.83;;;1.58;;
11935;SDS011;6027;48.576;9.180;2023-05-17T00:17:24;3.97;;;1.70;;
11935;SDS011;6027;48.576;9.180;2023-05-17T00:19:50;4.93;;;1.30;;
11935;SDS011;6027;48.576;9.180;2023-05-17T00:22:15;2.70;;;1.58;;
11935;SDS011;6027;48.576;9.180;2023-05-17T00:24:40;5.40;;;1.63;;
11935;SDS011;6027;48.576;9.180;2023-05-17T00:27:06;2.63;;;1.20;;
11935;SDS011;6027;48.576;9.180;2023-05-17T00:29:31;2.30;;;1.20;;
11935;SDS011;6027;48.576;9.180;2023-05-17T00:31:57;6.20;;;1.50;;
11935;SDS011;6027;48.576;9.180;2023-05-17T00:34:22;3.53;;;1.60;;
11935;SDS011;6027;48.576;9.180;2023-05-17T00:36:47;2.75;;;1.30;;
11935;SDS011;6027;48.576;9.180;2023-05-17T00:39:13;6.13;;;1.40;;
11935;SDS011;6027;48.576;9.180;2023-05-17T00:41:38;4.22;;;1.50;;
11935;SDS011;6027;48.576;9.180;2023-05-17T00:44:04;6.28;;;1.63;;
11935;SDS011;6027;48.576;9.180;2023-05-17T00:46:29;4.38;;;1.52;;
11935;SDS011;6027;48.576;9.180;2023-05-17T00:48:55;3.13;;;1.80;;
11935;SDS011;6027;48.576;9.180;2023-05-17T00:51:20;3.90;;;1.60;;
11935;SDS011;6027;48.576;9.180;2023-05-17T00:53:46;3.28;;;1.70;;
11935;SDS011;6027;48.576;9.180;2023-05-17T00:56:12;3.17;;;1.52;;
11935;SDS011;6027;48.576;9.180;2023-05-17T00:58:37;3.22;;;1.70;;
11935;SDS011;6027;48.576;9.180;2023-05-17T01:01:04;5.72;;;1.60;;
11935;SDS011;6027;48.576;9.180;2023-05-17T01:03:30;4.75;;;1.58;;
11935;SDS011;6027;48.576;9.180;2023-05-17T01:05:56;4.90;;;1.80;;
11935;SDS011;6027;48.576;9.180;2023-05-17T01:08:21;2.15;;;1.35;;
11935;SDS011;6027;48.576;9.180;2023-05-17T01:14:01;3.72;;;1.60;;
11935;SDS011;6027;48.576;9.180;2023-05-17T01:16:45;3.53;;;1.70;;
11935;SDS011;6027;48.576;9.180;2023-05-17T01:27:24;3.70;;;1.85;;
11935;SDS011;6027;48.576;9.180;2023-05-17T01:29:53;3.83;;;1.40;;
11935;SDS011;6027;48.576;9.180;2023-05-17T01:32:20;5.13;;;1.80;;
11935;SDS011;6027;48.576;9.180;2023-05-17T01:34:46;3.75;;;1.65;;
11935;SDS011;6027;48.576;9.180;2023-05-17T01:37:12;2.38;;;1.60;;
11935;SDS011;6027;48.576;9.180;2023-05-17T01:39:37;3.80;;;1.88;;
11935;SDS011;6027;48.576;9.180;2023-05-17T01:42:06;3.38;;;1.70;;
11935;SDS011;6027;48.576;9.180;2023-05-17T01:47:20;3.80;;;1.70;;
11935;SDS011;6027;48.576;9.180;2023-05-17T01:49:54;4.53;;;1.90;;
11935;SDS011;6027;48.576;9.180;2023-05-17T01:52:27;3.37;;;1.80;;
11935;SDS011;6027;48.576;9.180;2023-05-17T01:55:03;4.45;;;1.98;;
11935;SDS011;6027;48.576;9.180;2023-05-17T01:57:34;5.32;;;1.80;;
11935;SDS011;6027;48.576;9.180;2023-05-17T02:00:06;3.97;;;1.93;;
11935;SDS011;6027;48.576;9.180;2023-05-17T02:02:36;4.22;;;2.00;;
11935;SDS011;6027;48.576;9.180;2023-05-17T02:10:10;8.30;;;2.22;;
11935;SDS011;6027;48.576;9.180;2023-05-17T02:12:36;3.17;;;1.88;;
11935;SDS011;6027;48.576;9.180;2023-05-17T02:15:02;3.58;;;1.95;;
11935;SDS011;6027;48.576;9.180;2023-05-17T02:17:27;3.35;;;2.00;;
11935;SDS011;6027;48.576;9.180;2023-05-17T02:19:53;3.87;;;2.10;;
11935;SDS011;6027;48.576;9.180;2023-05-17T02:22:18;5.60;;;1.80;;
11935;SDS011;6027;48.576;9.180;2023-05-17T02:24:44;3.22;;;1.80;;
11935;SDS011;6027;48.576;9.180;2023-05-17T02:27:10;3.35;;;1.88;;
11935;SDS011;6027;48.576;9.180;2023-05-17T02:29:36;6.38;;;2.25;;
11935;SDS011;6027;48.576;9.180;2023-05-17T02:32:01;3.35;;;1.90;;
11935;SDS011;6027;48.576;9.180;2023-05-17T02:34:26;3.10;;;1.90;;
11935;SDS011;6027;48.576;9.180;2023-05-17T02:36:52;2.88;;;1.75;;
11935;SDS011;6027;48.576;9.180;2023-05-17T02:39:17;3.55;;;1.80;;
11935;SDS011;6027;48.576;9.180;2023-05-17T02:41:42;3.53;;;1.70;;
11935;SDS011;6027;48.576;9.180;2023-05-17T02:44:08;2.53;;;1.90;;
11935;SDS011;6027;48.576;9.180;2023-05-17T02:46:33;3.97;;;2.07;;
11935;SDS011;6027;48.576;9.180;2023-05-17T02:48:59;3.40;;;1.83;;
11935;SDS011;6027;48.576;9.180;2023-05-17T02:51:24;3.60;;;1.95;;
11935;SDS011;6027;48.576;9.180;2023-05-17T02:53:50;5.17;;;2.00;;
11935;SDS011;6027;48.576;9.180;2023-05-17T02:56:15;4.00;;;1.93;;
11935;SDS011;6027;48.576;9.180;2023-05-17T02:58:41;3.20;;;1.80;;
11935;SDS011;6027;48.576;9.180;2023-05-17T03:01:06;3.73;;;2.23;;
11935;SDS011;6027;48.576;9.180;2023-05-17T03:03:33;4.00;;;2.37;;
11935;SDS011;6027;48.576;9.180;2023-05-17T03:06:02;3.17;;;1.80;;
11935;SDS011;6027;48.576;9.180;2023-05-17T03:08:28;5.65;;;2.08;;
11935;SDS011;6027;48.576;9.180;2023-05-17T03:10:54;3.42;;;2.00;;
11935;SDS011;6027;48.576;9.180;2023-05-17T03:13:20;4.00;;;1.80;;
11935;SDS011;6027;48.576;9.180;2023-05-17T03:15:45;5.27;;;2.27;;
11935;SDS011;6027;48.576;9.180;2023-05-17T03:18:10;4.47;;;1.97;;
11935;SDS011;6027;48.576;9.180;2023-05-17T03:20:36;2.60;;;1.87;;
11935;SDS011;6027;48.576;9.180;2023-05-17T03:23:01;7.23;;;1.90;;
11935;SDS011;6027;48.576;9.180;2023-05-17T03:25:27;3.23;;;1.63;;
11935;SDS011;6027;48.576;9.180;2023-05-17T03:27:52;3.90;;;1.67;;
11935;SDS011;6027;48.576;9.180;2023-05-17T03:30:17;3.07;;;1.73;;
11935;SDS011;6027;48.576;9.180;2023-05-17T03:32:43;3.47;;;1.67;;
11935;SDS011;6027;48.576;9.180;2023-05-17T03:35:09;3.10;;;1.60;;
11935;SDS011;6027;48.576;9.180;2023-05-17T03:37:35;3.50;;;1.70;;
11935;SDS011;6027;48.576;9.180;2023-05-17T03:40:00;3.90;;;1.80;;
11935;SDS011;6027;48.576;9.180;2023-05-17T03:42:26;3.87;;;1.93;;
11935;SDS011;6027;48.576;9.180;2023-05-17T03:44:52;4.30;;;1.47;;
11935;SDS011;6027;48.576;9.180;2023-05-17T03:47:18;3.67;;;1.67;;
11935;SDS011;6027;48.576;9.180;2023-05-17T03:49:43;4.30;;;1.87;;
11935;SDS011;6027;48.576;9.180;2023-05-17T03:52:08;2.33;;;1.30;;
11935;SDS011;6027;48.576;9.180;2023-05-17T03:54:34;4.73;;;1.83;;
11935;SDS011;6027;48.576;9.180;2023-05-17T03:56:59;2.10;;;1.30;;
11935;SDS011;6027;48.576;9.180;2023-05-17T03:59:25;3.33;;;1.73;;
11935;SDS011;6027;48.576;9.180;2023-05-17T04:01:50;3.37;;;1.80;;
11935;SDS011;6027;48.576;9.180;2023-05-17T04:04:16;4.13;;;1.70;;
11935;SDS011;6027;48.576;9.180;2023-05-17T04:06:41;2.50;;;1.53;;
11935;SDS011;6027;48.576;9.180;2023-05-17T04:09:06;3.80;;;1.60;;
11935;SDS011;6027;48.576;9.180;2023-05-17T04:11:34;2.83;;;2.00;;
11935;SDS011;6027;48.576;9.180;2023-05-17T04:14:00;4.07;;;2.10;;
11935;SDS011;6027;48.576;9.180;2023-05-17T04:16:25;3.53;;;1.87;;
11935;SDS011;6027;48.576;9.180;2023-05-17T04:18:51;4.53;;;3.20;;
11935;SDS011;6027;48.576;9.180;2023-05-17T04:21:17;3.90;;;2.43;;
11935;SDS011;6027;48.576;9.180;2023-05-17T04:23:43;5.53;;;3.90;;
11935;SDS011;6027;48.576;9.180;2023-05-17T04:26:09;6.33;;;4.10;;
11935;SDS011;6027;48.576;9.180;2023-05-17T04:28:36;8.30;;;4.20;;
11935;SDS011;6027;48.576;9.180;2023-05-17T04:31:01;8.07;;;6.47;;
11935;SDS011;6027;48.576;9.180;2023-05-17T04:33:30;12.50;;;9.70;;
11935;SDS011;6027;48.576;9.180;2023-05-17T04:35:56;17.47;;;14.30;;
11935;SDS011;6027;48.576;9.180;2023-05-17T04:38:22;12.87;;;10.30;;
11935;SDS011;6027;48.576;9.180;2023-05-17T04:40:48;17.40;;;11.50;;
11935;SDS011;6027;48.576;9.180;2023-05-17T04:43:13;16.03;;;11.23;;
11935;SDS011;6027;48.576;9.180;2023-05-17T04:45:38;11.37;;;7.93;;
11935;SDS011;6027;48.576;9.180;2023-05-17T04:48:05;10.67;;;5.83;;
11935;SDS011;6027;48.576;9.180;2023-05-17T04:50:31;12.50;;;7.33;;
11935;SDS011;6027;48.576;9.180;2023-05-17T04:52:56;10.73;;;6.90;;
11935;SDS011;6027;48.576;9.180;2023-05-17T04:55:22;9.40;;;7.07;;
11935;SDS011;6027;48.576;9.180;2023-05-17T04:57:47;10.40;;;6.07;;
11935;SDS011;6027;48.576;9.180;2023-05-17T05:00:13;7.80;;;6.93;;
11935;SDS011;6027;48.576;9.180;2023-05-17T05:02:42;12.00;;;7.47;;
11935;SDS011;6027;48.576;9.180;2023-05-17T05:05:09;10.50;;;8.17;;
11935;SDS011;6027;48.576;9.180;2023-05-17T05:07:35;6.80;;;6.10;;
11935;SDS011;6027;48.576;9.180;2023-05-17T05:10:02;8.97;;;5.50;;
11935;SDS011;6027;48.576;9.180;2023-05-17T05:12:27;6.07;;;4.70;;
11935;SDS011;6027;48.576;9.180;2023-05-17T05:14:53;5.27;;;3.40;;
11935;SDS011;6027;48.576;9.180;2023-05-17T05:17:18;5.27;;;4.17;;
11935;SDS011;6027;48.576;9.180;2023-05-17T05:19:44;4.43;;;3.70;;
11935;SDS011;6027;48.576;9.180;2023-05-17T05:22:09;4.87;;;3.40;;
11935;SDS011;6027;48.576;9.180;2023-05-17T05:24:35;6.23;;;3.03;;
11935;SDS011;6027;48.576;9.180;2023-05-17T05:27:01;6.37;;;3.13;;
11935;SDS011;6027;48.576;9.180;2023-05-17T05:29:26;6.07;;;2.90;;
11935;SDS011;6027;48.576;9.180;2023-05-17T05:31:51;3.57;;;2.20;;
11935;SDS011;6027;48.576;9.180;2023-05-17T05:34:17;5.80;;;2.50;;
11935;SDS011;6027;48.576;9.180;2023-05-17T05:36:42;6.33;;;2.10;;
11935;SDS011;6027;48.576;9.180;2023-05-17T05:39:08;4.73;;;2.53;;
11935;SDS011;6027;48.576;9.180;2023-05-17T05:46:37;5.73;;;2.30;;
11935;SDS011;6027;48.576;9.180;2023-05-17T05:49:02;4.50;;;2.37;;
11935;SDS011;6027;48.576;9.180;2023-05-17T05:51:28;6.37;;;2.37;;
11935;SDS011;6027;48.576;9.180;2023-05-17T05:53:53;5.43;;;2.30;;
11935;SDS011;6027;48.576;9.180;2023-05-17T05:56:19;5.23;;;2.60;;
11935;SDS011;6027;48.576;9.180;2023-05-17T05:58:44;5.37;;;2.33;;
11935;SDS011;6027;48.576;9.180;2023-05-17T06:01:10;3.50;;;2.00;;
11935;SDS011;6027;48.576;9.180;2023-05-17T06:03:35;4.73;;;2.50;;
11935;SDS011;6027;48.576;9.180;2023-05-17T06:06:01;4.30;;;2.20;;
11935;SDS011;6027;48.576;9.180;2023-05-17T06:08:26;3.72;;;2.22;;
11935;SDS011;6027;48.576;9.180;2023-05-17T06:10:52;3.85;;;1.92;;
11935;SDS011;6027;48.576;9.180;2023-05-17T06:13:17;4.05;;;2.25;;
11935;SDS011;6027;48.576;9.180;2023-05-17T06:15:43;5.72;;;2.50;;
11935;SDS011;6027;48.576;9.180;2023-05-17T06:18:08;6.65;;;2.25;;
11935;SDS011;6027;48.576;9.180;2023-05-17T06:20:34;8.05;;;2.35;;
11935;SDS011;6027;48.576;9.180;2023-05-17T06:22:59;4.50;;;2.80;;
11935;SDS011;6027;48.576;9.180;2023-05-17T06:25:25;6.22;;;2.15;;
11935;SDS011;6027;48.576;9.180;2023-05-17T06:27:51;6.75;;;2.28;;
11935;SDS011;6027;48.576;9.180;2023-05-17T06:30:16;4.95;;;2.38;;
11935;SDS011;6027;48.576;9.180;2023-05-17T06:32:42;5.65;;;2.47;;
11935;SDS011;6027;48.576;9.180;2023-05-17T06:35:07;7.57;;;2.45;;
11935;SDS011;6027;48.576;9.180;2023-05-17T06:37:33;5.63;;;2.30;;
11935;SDS011;6027;48.576;9.180;2023-05-17T06:40:02;4.88;;;2.30;;
11935;SDS011;6027;48.576;9.180;2023-05-17T06:42:31;6.90;;;3.58;;
11935;SDS011;6027;48.576;9.180;2023-05-17T06:44:56;4.32;;;3.08;;
11935;SDS011;6027;48.576;9.180;2023-05-17T06:47:22;4.47;;;2.65;;
11935;SDS011;6027;48.576;9.180;2023-05-17T06:49:48;8.10;;;3.28;;
11935;SDS011;6027;48.576;9.180;2023-05-17T06:52:13;5.78;;;3.05;;
11935;SDS011;6027;48.576;9.180;2023-05-17T06:54:39;6.07;;;2.83;;
11935;SDS011;6027;48.576;9.180;2023-05-17T06:57:05;8.10;;;2.70;;
11935;SDS011;6027;48.576;9.180;2023-05-17T06:59:30;6.47;;;2.78;;
11935;SDS011;6027;48.576;9.180;2023-05-17T07:01:56;4.85;;;2.70;;
11935;SDS011;6027;48.576;9.180;2023-05-17T07:04:21;5.07;;;2.50;;
11935;SDS011;6027;48.576;9.180;2023-05-17T07:06:47;5.57;;;2.90;;
11935;SDS011;6027;48.576;9.180;2023-05-17T07:09:12;6.95;;;2.60;;
11935;SDS011;6027;48.576;9.180;2023-05-17T07:11:38;5.10;;;2.58;;
11935;SDS011;6027;48.576;9.180;2023-05-17T07:14:03;4.60;;;2.22;;
11935;SDS011;6027;48.576;9.180;2023-05-17T07:16:29;6.75;;;2.58;;
11935;SDS011;6027;48.576;9.180;2023-05-17T07:18:54;4.18;;;2.22;;
11935;SDS011;6027;48.576;9.180;2023-05-17T07:21:21;8.20;;;2.50;;
11935;SDS011;6027;48.576;9.180;2023-05-17T07:23:48;3.65;;;2.38;;
11935;SDS011;6027;48.576;9.180;2023-05-17T07:26:17;4.85;;;2.35;;
11935;SDS011;6027;48.576;9.180;2023-05-17T07:28:43;4.80;;;2.40;;
11935;SDS011;6027;48.576;9.180;2023-05-17T07:31:09;5.25;;;2.53;;
11935;SDS011;6027;48.576;9.180;2023-05-17T07:33:35;3.97;;;2.55;;
11935;SDS011;6027;48.576;9.180;2023-05-17T07:36:01;5.82;;;2.30;;
11935;SDS011;6027;48.576;9.180;2023-05-17T07:38:26;5.35;;;2.42;;
11935;SDS011;6027;48.576;9.180;2023-05-17T07:40:52;4.07;;;2.40;;
11935;SDS011;6027;48.576;9.180;2023-05-17T07:43:17;6.22;;;2.22;;
11935;SDS011;6027;48.576;9.180;2023-05-17T07:45:43;6.65;;;2.47;;
11935;SDS011;6027;48.576;9.180;2023-05-17T07:48:09;5.72;;;2.60;;
11935;SDS011;6027;48.576;9.180;2023-05-17T07:50:35;6.20;;;2.55;;
11935;SDS011;6027;48.576;9.180;2023-05-17T07:53:00;6.25;;;2.70;;
11935;SDS011;6027;48.576;9.180;2023-05-17T07:55:25;6.80;;;2.50;;
11935;SDS011;6027;48.576;9.180;2023-05-17T07:57:51;4.65;;;2.50;;
11935;SDS011;6027;48.576;9.180;2023-05-17T08:00:17;4.63;;;2.50;;
11935;SDS011;6027;48.576;9.180;2023-05-17T08:02:43;6.45;;;2.90;;
11935;SDS011;6027;48.576;9.180;2023-05-17T08:05:10;5.38;;;3.05;;
11935;SDS011;6027;48.576;9.180;2023-05-17T08:07:35;3.92;;;2.33;;
11935;SDS011;6027;48.576;9.180;2023-05-17T08:10:00;8.20;;;2.58;;
11935;SDS011;6027;48.576;9.180;2023-05-17T08:12:26;3.67;;;2.45;;
11935;SDS011;6027;48.576;9.180;2023-05-17T08:14:51;5.68;;;2.67;;
11935;SDS011;6027;48.576;9.180;2023-05-17T08:17:17;5.20;;;2.67;;
11935;SDS011;6027;48.576;9.180;2023-05-17T08:19:42;7.22;;;2.95;;
11935;SDS011;6027;48.576;9.180;2023-05-17T08:22:08;6.97;;;3.00;;
11935;SDS011;6027;48.576;9.180;2023-05-17T08:24:34;5.43;;;2.92;;
11935;SDS011;6027;48.576;9.180;2023-05-17T08:27:00;4.13;;;2.30;;
11935;SDS011;6027;48.576;9.180;2023-05-17T08:29:26;4.95;;;2.53;;
11935;SDS011;6027;48.576;9.180;2023-05-17T08:31:52;6.90;;;2.72;;
11935;SDS011;6027;48.576;9.180;2023-05-17T08:34:18;4.82;;;2.50;;
11935;SDS011;6027;48.576;9.180;2023-05-17T08:36:44;3.63;;;2.50;;
11935;SDS011;6027;48.576;9.180;2023-05-17T08:39:10;6.30;;;3.17;;
11935;SDS011;6027;48.576;9.180;2023-05-17T08:41:36;3.72;;;2.65;;
11935;SDS011;6027;48.576;9.180;2023-05-17T08:44:03;5.28;;;2.90;;
11935;SDS011;6027;48.576;9.180;2023-05-17T08:46:31;3.55;;;2.42;;
11935;SDS011;6027;48.576;9.180;2023-05-17T08:48:57;5.85;;;2.85;;
11935;SDS011;6027;48.576;9.180;2023-05-17T08:51:26;4.18;;;2.38;;
11935;SDS011;6027;48.576;9.180;2023-05-17T08:53:53;5.55;;;2.65;;
11935;SDS011;6027;48.576;9.180;2023-05-17T08:56:19;4.82;;;2.80;;
11935;SDS011;6027;48.576;9.180;2023-05-17T08:58:47;5.50;;;2.45;;
11935;SDS011;6027;48.576;9.180;2023-05-17T09:01:17;4.82;;;2.85;;
11935;SDS011;6027;48.576;9.180;2023-05-17T09:03:45;4.43;;;2.80;;
11935;SDS011;6027;48.576;9.180;2023-05-17T09:06:21;6.70;;;2.88;;
11935;SDS011;6027;48.576;9.180;2023-05-17T09:08:51;4.85;;;2.80;;
11935;SDS011;6027;48.576;9.180;2023-05-17T09:11:29;6.10;;;3.13;;
11935;SDS011;6027;48.576;9.180;2023-05-17T09:13:57;8.18;;;2.85;;
11935;SDS011;6027;48.576;9.180;2023-05-17T09:16:24;5.38;;;3.05;;
11935;SDS011;6027;48.576;9.180;2023-05-17T09:18:53;3.95;;;2.63;;
11935;SDS011;6027;48.576;9.180;2023-05-17T09:23:48;5.78;;;3.20;;
11935;SDS011;6027;48.576;9.180;2023-05-17T09:26:16;7.75;;;3.10;;
11935;SDS011;6027;48.576;9.180;2023-05-17T09:28:42;6.70;;;2.85;;
11935;SDS011;6027;48.576;9.180;2023-05-17T09:31:08;6.75;;;3.33;;
11935;SDS011;6027;48.576;9.180;2023-05-17T09:33:44;6.65;;;3.28;;
11935;SDS011;6027;48.576;9.180;2023-05-17T09:36:29;4.00;;;2.60;;
11935;SDS011;6027;48.576;9.180;2023-05-17T09:38:55;5.00;;;2.80;;
11935;SDS011;6027;48.576;9.180;2023-05-17T09:41:26;4.90;;;2.50;;
11935;SDS011;6027;48.576;9.180;2023-05-17T09:43:58;3.72;;;2.70;;
11935;SDS011;6027;48.576;9.180;2023-05-17T09:46:25;5.68;;;2.53;;
11935;SDS011;6027;48.576;9.180;2023-05-17T09:48:53;5.47;;;3.08;;
11935;SDS011;6027;48.576;9.180;2023-05-17T09:51:33;4.85;;;2.53;;
11935;SDS011;6027;48.576;9.180;2023-05-17T09:54:03;5.38;;;2.63;;
11935;SDS011;6027;48.576;9.180;2023-05-17T09:56:31;6.07;;;2.90;;
11935;SDS011;6027;48.576;9.180;2023-05-17T09:58:57;6.00;;;3.03;;
11935;SDS011;6027;48.576;9.180;2023-05-17T10:01:29;6.25;;;3.17;;
11935;SDS011;6027;48.576;9.180;2023-05-17T10:03:59;5.15;;;3.20;;
11935;SDS011;6027;48.576;9.180;2023-05-17T10:06:27;6.30;;;2.75;;
11935;SDS011;6027;48.576;9.180;2023-05-17T10:08:55;4.60;;;2.72;;
11935;SDS011;6027;48.576;9.180;2023-05-17T10:11:26;6.47;;;2.70;;
11935;SDS011;6027;48.576;9.180;2023-05-17T10:14:10;4.82;;;2.90;;
11935;SDS011;6027;48.576;9.180;2023-05-17T10:16:42;6.88;;;2.72;;
11935;SDS011;6027;48.576;9.180;2023-05-17T10:19:10;5.88;;;2.78;;
11935;SDS011;6027;48.576;9.180;2023-05-17T10:21:35;9.18;;;3.72;;
11935;SDS011;6027;48.576;9.180;2023-05-17T10:24:03;4.90;;;2.88;;
11935;SDS011;6027;48.576;9.180;2023-05-17T10:26:30;6.32;;;3.10;;
11935;SDS011;6027;48.576;9.180;2023-05-17T10:28:56;3.22;;;2.40;;
11935;SDS011;6027;48.576;9.180;2023-05-17T10:31:30;7.03;;;2.88;;
11935;SDS011;6027;48.576;9.180;2023-05-17T10:34:01;5.30;;;2.95;;
11935;SDS011;6027;48.576;9.180;2023-05-17T10:36:27;4.35;;;3.42;;
11935;SDS011;6027;48.576;9.180;2023-05-17T10:38:52;5.78;;;3.60;;
11935;SDS011;6027;48.576;9.180;2023-05-17T10:41:20;4.50;;;3.70;;
11935;SDS011;6027;48.576;9.180;2023-05-17T10:43:48;5.22;;;3.13;;
11935;SDS011;6027;48.576;9.180;2023-05-17T10:46:15;4.55;;;3.00;;
11935;SDS011;6027;48.576;9.180;2023-05-17T10:48:42;3.85;;;2.58;;
11935;SDS011;6027;48.576;9.180;2023-05-17T10:51:08;4.07;;;2.50;;
11935;SDS011;6027;48.576;9.180;2023-05-17T10:56:38;7.70;;;3.10;;
11935;SDS011;6027;48.576;9.180;2023-05-17T10:59:24;5.65;;;2.92;;
11935;SDS011;6027;48.576;9.180;2023-05-17T11:02:05;4.63;;;2.90;;
11935;SDS011;6027;48.576;9.180;2023-05-17T11:04:35;3.58;;;2.63;;
11935;SDS011;6027;48.576;9.180;2023-05-17T11:09:43;3.75;;;2.60;;
11935;SDS011;6027;48.576;9.180;2023-05-17T11:12:38;4.07;;;2.40;;
11935;SDS011;6027;48.576;9.180;2023-05-17T11:15:09;4.93;;;2.80;;
11935;SDS011;6027;48.576;9.180;2023-05-17T11:22:40;6.57;;;2.95;;
11935;SDS011;6027;48.576;9.180;2023-05-17T11:25:08;3.65;;;2.50;;
11935;SDS011;6027;48.576;9.180;2023-05-17T11:30:23;4.60;;;2.55;;
11935;SDS011;6027;48.576;9.180;2023-05-17T11:33:11;5.88;;;2.50;;
11935;SDS011;6027;48.576;9.180;2023-05-17T11:35:37;5.35;;;2.60;;
11935;SDS011;6027;48.576;9.180;2023-05-17T11:38:22;5.18;;;2.85;;
11935;SDS011;6027;48.576;9.180;2023-05-17T11:40:52;3.53;;;2.53;;
11935;SDS011;6027;48.576;9.180;2023-05-17T11:43:19;4.15;;;2.88;;
11935;SDS011;6027;48.576;9.180;2023-05-17T11:45:51;6.60;;;2.72;;
11935;SDS011;6027;48.576;9.180;2023-05-17T11:48:25;5.03;;;3.17;;
11935;SDS011;6027;48.576;9.180;2023-05-17T11:50:52;4.32;;;2.67;;
11935;SDS011;6027;48.576;9.180;2023-05-17T11:53:19;4.05;;;2.70;;
11935;SDS011;6027;48.576;9.180;2023-05-17T11:55:46;6.75;;;3.17;;
11935;SDS011;6027;48.576;9.180;2023-05-17T11:58:20;4.30;;;2.92;;
11935;SDS011;6027;48.576;9.180;2023-05-17T12:00:52;5.55;;;3.08;;
11935;SDS011;6027;48.576;9.180;2023-05-17T12:03:20;5.20;;;2.83;;
11935;SDS011;6027;48.576;9.180;2023-05-17T12:05:47;4.68;;;2.70;;
11935;SDS011;6027;48.576;9.180;2023-05-17T12:08:15;9.07;;;3.33;;
11935;SDS011;6027;48.576;9.180;2023-05-17T12:10:45;4.07;;;3.00;;
11935;SDS011;6027;48.576;9.180;2023-05-17T12:13:13;5.70;;;3.20;;
11935;SDS011;6027;48.576;9.180;2023-05-17T12:15:38;4.45;;;2.88;;
11935;SDS011;6027;48.576;9.180;2023-05-17T12:18:05;4.70;;;3.20;;
11935;SDS011;6027;48.576;9.180;2023-05-17T12:20:30;5.15;;;3.08;;
11935;SDS011;6027;48.576;9.180;2023-05-17T12:22:57;6.38;;;3.25;;
11935;SDS011;6027;48.576;9.180;2023-05-17T12:25:23;4.45;;;2.97;;
11935;SDS011;6027;48.576;9.180;2023-05-17T12:28:12;5.38;;;3.10;;
11935;SDS011;6027;48.576;9.180;2023-05-17T12:30:38;4.68;;;3.20;;
11935;SDS011;6027;48.576;9.180;2023-05-17T12:33:04;5.18;;;2.90;;
11935;SDS011;6027;48.576;9.180;2023-05-17T12:35:32;9.30;;;3.03;;
11935;SDS011;6027;48.576;9.180;2023-05-17T12:37:58;5.63;;;3.28;;
11935;SDS011;6027;48.576;9.180;2023-05-17T12:40:24;3.95;;;2.88;;
11935;SDS011;6027;48.576;9.180;2023-05-17T12:42:50;3.83;;;2.92;;
11935;SDS011;6027;48.576;9.180;2023-05-17T12:45:15;7.15;;;3.17;;
11935;SDS011;6027;48.576;9.180;2023-05-17T12:47:41;6.03;;;2.70;;
11935;SDS011;6027;48.576;9.180;2023-05-17T12:50:07;5.75;;;3.33;;
11935;SDS011;6027;48.576;9.180;2023-05-17T12:52:33;4.95;;;3.30;;
11935;SDS011;6027;48.576;9.180;2023-05-17T12:55:04;8.77;;;3.05;;
11935;SDS011;6027;48.576;9.180;2023-05-17T12:57:29;6.63;;;3.00;;
11935;SDS011;6027;48.576;9.180;2023-05-17T13:02:23;7.15;;;2.88;;
11935;SDS011;6027;48.576;9.180;2023-05-17T13:04:48;4.63;;;3.10;;
11935;SDS011;6027;48.576;9.180;2023-05-17T13:07:21;7.78;;;3.00;;
11935;SDS011;6027;48.576;9.180;2023-05-17T13:09:48;5.22;;;2.85;;
11935;SDS011;6027;48.576;9.180;2023-05-17T13:12:22;3.63;;;2.40;;
11935;SDS011;6027;48.576;9.180;2023-05-17T13:14:49;7.05;;;2.90;;
11935;SDS011;6027;48.576;9.180;2023-05-17T13:17:17;3.10;;;2.33;;
11935;SDS011;6027;48.576;9.180;2023-05-17T13:20:11;5.45;;;3.20;;
11935;SDS011;6027;48.576;9.180;2023-05-17T13:22:44;4.38;;;2.70;;
11935;SDS011;6027;48.576;9.180;2023-05-17T13:25:10;5.47;;;3.30;;
11935;SDS011;6027;48.576;9.180;2023-05-17T13:27:35;5.70;;;2.95;;
11935;SDS011;6027;48.576;9.180;2023-05-17T13:30:01;9.45;;;2.97;;
11935;SDS011;6027;48.576;9.180;2023-05-17T13:32:27;5.13;;;3.08;;
11935;SDS011;6027;48.576;9.180;2023-05-17T13:34:52;5.60;;;2.85;;
11935;SDS011;6027;48.576;9.180;2023-05-17T13:37:17;4.85;;;3.13;;
11935;SDS011;6027;48.576;9.180;2023-05-17T13:39:43;4.18;;;2.70;;
11935;SDS011;6027;48.576;9.180;2023-05-17T13:42:09;4.93;;;3.20;;
11935;SDS011;6027;48.576;9.180;2023-05-17T13:44:34;4.88;;;2.80;;
11935;SDS011;6027;48.576;9.180;2023-05-17T13:47:00;5.43;;;2.60;;
11935;SDS011;6027;48.576;9.180;2023-05-17T13:49:25;5.38;;;2.85;;
11935;SDS011;6027;48.576;9.180;2023-05-17T13:51:52;4.32;;;2.33;;
11935;SDS011;6027;48.576;9.180;2023-05-17T13:54:17;4.18;;;2.78;;
11935;SDS011;6027;48.576;9.180;2023-05-17T13:56:44;7.43;;;2.90;;
11935;SDS011;6027;48.576;9.180;2023-05-17T13:59:10;3.90;;;2.80;;
11935;SDS011;6027;48.576;9.180;2023-05-17T14:01:36;5.13;;;2.88;;
11935;SDS011;6027;48.576;9.180;2023-05-17T14:04:01;6.00;;;2.80;;
11935;SDS011;6027;48.576;9.180;2023-05-17T14:06:27;5.60;;;2.65;;
11935;SDS011;6027;48.576;9.180;2023-05-17T14:08:52;5.35;;;2.88;;
11935;SDS011;6027;48.576;9.180;2023-05-17T14:11:19;6.07;;;3.00;;
11935;SDS011;6027;48.576;9.180;2023-05-17T14:13:45;4.55;;;3.15;;
11935;SDS011;6027;48.576;9.180;2023-05-17T14:16:10;6.95;;;2.75;;
11935;SDS011;6027;48.576;9.180;2023-05-17T14:18:36;7.03;;;2.90;;
11935;SDS011;6027;48.576;9.180;2023-05-17T14:21:02;4.40;;;2.88;;
11935;SDS011;6027;48.576;9.180;2023-05-17T14:23:28;4.22;;;2.80;;
11935;SDS011;6027;48.576;9.180;2023-05-17T14:25:53;3.92;;;2.60;;
11935;SDS011;6027;48.576;9.180;2023-05-17T14:28:18;4.55;;;3.45;;
11935;SDS011;6027;48.576;9.180;2023-05-17T14:30:44;9.88;;;2.70;;
11935;SDS011;6027;48.576;9.180;2023-05-17T14:33:09;6.90;;;3.00;;
11935;SDS011;6027;48.576;9.180;2023-05-17T14:35:35;4.90;;;3.03;;
11935;SDS011;6027;48.576;9.180;2023-05-17T14:38:01;3.25;;;2.65;;
11935;SDS011;6027;48.576;9.180;2023-05-17T14:40:26;5.15;;;3.13;;
11935;SDS011;6027;48.576;9.180;2023-05-17T14:42:51;3.85;;;2.70;;
11935;SDS011;6027;48.576;9.180;2023-05-17T14:45:17;4.43;;;2.50;;
11935;SDS011;6027;48.576;9.180;2023-05-17T14:47:43;4.90;;;2.50;;
11935;SDS011;6027;48.576;9.180;2023-05-17T14:50:08;3.55;;;2.28;;
11935;SDS011;6027;48.576;9.180;2023-05-17T14:52:34;3.80;;;2.55;;
11935;SDS011;6027;48.576;9.180;2023-05-17T14:55:00;3.17;;;2.25;;
11935;SDS011;6027;48.576;9.180;2023-05-17T14:57:25;5.95;;;2.75;;
11935;SDS011;6027;48.576;9.180;2023-05-17T14:59:51;3.78;;;2.38;;
11935;SDS011;6027;48.576;9.180;2023-05-17T15:02:17;4.53;;;2.70;;
11935;SDS011;6027;48.576;9.180;2023-05-17T15:04:42;5.97;;;3.10;;
11935;SDS011;6027;48.576;9.180;2023-05-17T15:07:07;5.20;;;3.00;;
11935;SDS011;6027;48.576;9.180;2023-05-17T15:09:39;42.97;;;24.15;;
11935;SDS011;6027;48.576;9.180;2023-05-17T15:12:07;20.20;;;12.68;;
11935;SDS011;6027;48.576;9.180;2023-05-17T15:14:34;6.20;;;3.78;;
11935;SDS011;6027;48.576;9.180;2023-05-17T15:16:59;5.10;;;3.20;;
11935;SDS011;6027;48.576;9.180;2023-05-17T15:19:26;7.65;;;2.58;;
11935;SDS011;6027;48.576;9.180;2023-05-17T15:21:52;6.10;;;2.90;;
11935;SDS011;6027;48.576;9.180;2023-05-17T15:24:17;7.00;;;3.05;;
11935;SDS011;6027;48.576;9.180;2023-05-17T15:26:42;5.25;;;3.20;;
11935;SDS011;6027;48.576;9.180;2023-05-17T15:29:08;10.32;;;7.22;;
11935;SDS011;6027;48.576;9.180;2023-05-17T15:31:34;5.85;;;3.30;;
11935;SDS011;6027;48.576;9.180;2023-05-17T15:33:59;5.18;;;2.88;;
11935;SDS011;6027;48.576;9.180;2023-05-17T15:36:25;5.07;;;2.95;;
11935;SDS011;6027;48.576;9.180;2023-05-17T15:38:50;5.32;;;3.00;;
11935;SDS011;6027;48.576;9.180;2023-05-17T15:41:16;3.80;;;2.75;;